Main page
METAR-TAF:

METAR-TAF

Airports :

Hamadan International Airport

Hamedan, Iran

latitude: 34-52-05N, longitude: 048-33-08E, elevation: 1757 m

Current weather observation

The report was made 1 hour and 17 minutes ago, at 13:00 UTC
Wind 10 kt from the South/Southwest
Temperature 36°C
Humidity 7%
Pressure 1010 hPa
Visibility 10 km or more
no clouds below 1500 m and no cumulonimbus

METAR: OIHH 181300Z 21010KT CAVOK 36/M06 Q1010

Time: 18:47 (14:17 UTC)


TAF: missing

Weather observations and forecasts of more than 4000 airports (METAR and TAF reports).

The available stations are represented by yellow and red dots on the map.

Hover mouse over dot to see the name of the station.

Then click to see weather observations and forecasts.

To change the map : click on the green buttons with a black cross to zoom in, on the green button with a dash to zoom out, or on the green arrows for adjacent maps.


METAR-TAF: